Time;durP1;ratioP1;P1;durP2;ratioP2;P2;SDS_P1;SDS_P2;PMS_P1;PMS_P2;Temp;Humidity;BMP_temperature;BMP_pressure;BME280_temperature;BME280_humidity;BME280_pressure;Samples;Min_cycle;Max_cycle;Signal;HPM_P1;HPM_P2
2022/10/05 00:02:22;;;;;;;5.80;3.87;;;;;;;21.49;42.27;101635.89;1648477;86;22261;-80
2022/10/05 00:04:55;;;;;;;5.42;3.55;;;;;;;21.49;42.25;101635.07;1656493;86;21188;-80
2022/10/05 00:07:22;;;;;;;7.78;4.03;;;;;;;21.49;42.27;101640.05;1709883;83;21780;-79
2022/10/05 00:09:57;;;;;;;5.80;3.80;;;;;;;21.49;42.28;101642.81;1712483;82;21133;-79
2022/10/05 00:12:24;;;;;;;4.47;3.60;;;;;;;21.48;42.26;101638.39;1733357;82;21131;-79
2022/10/05 00:14:54;;;;;;;7.03;4.10;;;;;;;21.47;42.26;101636.78;1733527;82;21033;-80
2022/10/05 00:17:22;;;;;;;6.03;3.58;;;;;;;21.49;42.25;101647.53;1733409;82;21573;-80
2022/10/05 00:19:52;;;;;;;4.62;3.42;;;;;;;21.48;42.25;101653.63;1733115;82;21095;-80
2022/10/05 00:22:22;;;;;;;6.05;3.60;;;;;;;21.48;42.24;101652.23;1724777;82;21111;-80
2022/10/05 00:24:53;;;;;;;5.90;4.00;;;;;;;21.47;42.24;101653.39;1709751;83;21052;-80
2022/10/05 00:27:21;;;;;;;4.47;3.60;;;;;;;21.47;42.25;101652.00;1709352;83;21077;-80
2022/10/05 00:29:49;;;;;;;4.33;3.85;;;;;;;21.47;42.26;101649.80;1648021;87;21085;-80
2022/10/05 00:32:15;;;;;;;5.40;3.45;;;;;;;21.47;42.26;101651.18;1647783;85;21125;-80
2022/10/05 00:34:42;;;;;;;7.00;3.83;;;;;;;21.47;42.28;101652.00;1647693;86;21071;-80
2022/10/05 00:37:08;;;;;;;5.90;3.60;;;;;;;21.47;42.23;101649.23;1675552;85;21574;-80
2022/10/05 00:39:36;;;;;;;4.80;3.25;;;;;;;21.47;42.24;101654.77;1680746;84;21151;-79
2022/10/05 00:42:51;;;;;;;5.60;3.40;;;;;;;21.47;42.24;101655.33;1668346;86;21657;-79
2022/10/05 00:45:23;;;;;;;5.12;3.55;;;;;;;21.47;42.25;101654.77;1710211;83;21526;-80
2022/10/05 00:48:13;;;;;;;3.72;3.33;;;;;;;21.45;42.24;101654.23;1647151;85;21099;-80
2022/10/05 00:51:18;;;;;;;4.35;3.50;;;;;;;21.45;42.24;101657.01;1574059;89;21173;-80
2022/10/05 00:54:31;;;;;;;6.25;3.15;;;;;;;21.45;42.24;101657.01;1649241;86;21587;-80
2022/10/05 00:57:33;;;;;;;4.08;3.40;;;;;;;21.43;42.25;101659.24;1651036;85;21921;-80
2022/10/05 01:00:08;;;;;;;6.20;3.87;;;;;;;21.43;42.25;101665.61;1629102;86;21052;-80
2022/10/05 01:03:03;;;;;;;5.15;3.50;;;;;;;21.42;42.26;101664.55;1658409;86;21124;-80
2022/10/05 01:05:41;;;;;;;4.33;3.30;;;;;;;21.42;42.28;101653.47;1658097;86;21069;-79
2022/10/05 01:08:34;;;;;;;4.72;3.55;;;;;;;21.41;42.28;101658.19;1673022;85;21068;-80
2022/10/05 01:11:29;;;;;;;8.20;3.90;;;;;;;21.42;42.26;101657.63;1673078;84;21230;-80
2022/10/05 01:14:09;;;;;;;4.42;3.17;;;;;;;21.41;42.27;101649.05;1673093;84;21072;-80
2022/10/05 01:16:50;;;;;;;3.95;3.08;;;;;;;21.40;42.41;101660.69;1673208;85;21069;-80
2022/10/05 01:19:28;;;;;;;5.37;3.52;;;;;;;21.40;42.41;101660.69;1662212;85;21057;-80
2022/10/05 01:22:14;;;;;;;4.50;3.30;;;;;;;21.40;42.29;101668.98;1672683;84;21053;-80
2022/10/05 01:24:53;;;;;;;4.45;2.92;;;;;;;21.40;42.27;101677.84;1677055;84;21574;-79
2022/10/05 01:27:41;;;;;;;5.10;3.60;;;;;;;21.40;42.29;101686.98;1675390;85;21060;-80
2022/10/05 01:30:16;;;;;;;4.50;3.20;;;;;;;21.40;42.29;101680.62;1685070;85;21088;-79
2022/10/05 01:33:02;;;;;;;6.75;3.60;;;;;;;21.40;42.29;101680.62;1732129;82;21113;-79
2022/10/05 01:35:52;;;;;;;6.95;3.85;;;;;;;21.39;42.30;101683.95;1718959;82;21130;-80
2022/10/05 01:38:33;;;;;;;6.17;3.30;;;;;;;21.39;42.29;101690.04;1714880;83;21175;-79
2022/10/05 01:41:09;;;;;;;;;;;;;;;21.39;42.30;101688.09;1717653;83;21574;-80
2022/10/05 01:43:50;;;;;;;4.53;3.37;;;;;;;21.39;42.30;101687.27;1715007;83;20180;-79
2022/10/05 01:46:42;;;;;;;6.25;3.85;;;;;;;21.38;42.34;101687.03;1715342;83;21088;-80
2022/10/05 01:49:41;;;;;;;4.92;3.35;;;;;;;21.37;42.32;101692.30;1714575;83;21637;-80
2022/10/05 01:52:29;;;;;;;5.60;3.08;;;;;;;21.37;42.31;101690.92;1715131;83;21926;-79
2022/10/05 01:55:17;;;;;;;4.20;3.12;;;;;;;21.36;42.30;101695.63;1714543;83;21179;-79
2022/10/05 01:57:58;;;;;;;3.98;3.10;;;;;;;21.36;42.30;101703.11;1715101;83;21044;-80
2022/10/05 02:00:24;;;;;;;4.72;3.37;;;;;;;21.36;42.29;101708.64;1714622;83;21075;-80
2022/10/05 02:03:02;;;;;;;6.80;3.40;;;;;;;21.36;42.34;101713.62;1710433;83;21726;-79
2022/10/05 02:05:40;;;;;;;5.15;3.25;;;;;;;21.37;42.31;101721.37;1682746;84;21558;-79
2022/10/05 02:08:19;;;;;;;3.15;2.75;;;;;;;21.37;42.31;101721.37;1673957;85;21551;-80
2022/10/05 02:10:53;;;;;;;5.22;3.20;;;;;;;21.37;42.31;101730.50;1692412;84;21088;-80
2022/10/05 02:13:28;;;;;;;5.53;3.10;;;;;;;21.37;42.31;101737.42;1705271;83;21069;-80
2022/10/05 02:15:59;;;;;;;4.45;3.15;;;;;;;21.36;42.30;101733.00;1680292;84;21076;-80
2022/10/05 02:18:33;;;;;;;5.28;3.10;;;;;;;21.38;42.34;101742.40;1705018;84;21191;-80
2022/10/05 02:20:59;;;;;;;5.03;3.40;;;;;;;21.36;42.31;101742.69;1704901;83;20977;-80
2022/10/05 02:23:29;;;;;;;5.22;3.60;;;;;;;21.37;42.31;101747.11;1705285;83;21164;-79
2022/10/05 02:25:56;;;;;;;4.87;3.15;;;;;;;21.37;42.31;101747.11;1705198;84;21390;-80
2022/10/05 02:28:37;;;;;;;4.37;2.95;;;;;;;21.38;42.30;101757.62;1681614;84;21112;-80
2022/10/05 02:31:14;;;;;;;4.35;3.22;;;;;;;21.38;42.31;101760.39;1705016;84;21526;-79
2022/10/05 02:33:41;;;;;;;6.33;3.47;;;;;;;21.37;42.30;101756.80;1703493;84;21040;-80
2022/10/05 02:36:27;;;;;;;4.05;3.02;;;;;;;21.37;42.35;101768.43;1703543;83;21056;-80
2022/10/05 02:39:10;;;;;;;5.22;3.00;;;;;;;21.37;42.33;101767.88;1704735;84;21077;-80
2022/10/05 02:42:03;;;;;;;5.00;3.10;;;;;;;21.37;42.34;101769.81;1704433;83;21088;-78
2022/10/05 02:44:38;;;;;;;4.12;3.22;;;;;;;21.37;42.31;101776.73;1696335;84;21654;-79
2022/10/05 02:47:22;;;;;;;5.87;3.20;;;;;;;21.37;42.30;101775.34;1710203;83;21567;-80
2022/10/05 02:50:13;;;;;;;4.75;3.20;;;;;;;21.36;42.33;101773.70;1714888;83;21370;-79
2022/10/05 02:53:06;;;;;;;8.38;3.40;;;;;;;21.36;42.33;101776.47;1715098;83;21669;-79
2022/10/05 02:55:47;;;;;;;4.65;3.05;;;;;;;21.36;42.31;101775.91;1715019;83;21241;-79
2022/10/05 02:58:26;;;;;;;5.47;3.25;;;;;;;21.36;42.31;101782.00;1697561;83;21143;-79
2022/10/05 03:01:01;;;;;;;3.65;3.17;;;;;;;21.35;42.32;101784.50;1714811;83;21056;-79
2022/10/05 03:03:33;;;;;;;4.62;2.83;;;;;;;21.33;42.36;101786.20;1714947;83;21080;-78
2022/10/05 03:06:02;;;;;;;8.15;3.27;;;;;;;21.34;42.37;101786.44;1626631;86;21516;-79
2022/10/05 03:08:36;;;;;;;4.67;3.22;;;;;;;21.35;42.33;101792.80;1665984;86;21222;-79
2022/10/05 03:11:27;;;;;;;4.55;3.40;;;;;;;21.35;42.33;101788.66;1665410;86;22090;-79
2022/10/05 03:14:11;;;;;;;5.63;3.33;;;;;;;21.34;42.33;101791.18;1683006;85;21060;-79
2022/10/05 03:16:54;;;;;;;5.08;3.55;;;;;;;21.33;42.34;101795.06;1681499;85;21096;-78
2022/10/05 03:20:07;;;;;;;4.62;3.17;;;;;;;21.34;42.34;101794.75;1618001;88;21170;-79
2022/10/05 03:22:59;;;;;;;6.70;3.67;;;;;;;21.33;42.36;101799.22;1634645;85;21098;-79
2022/10/05 03:25:43;;;;;;;5.25;3.02;;;;;;;21.33;42.33;101807.52;1678355;84;21680;-79
2022/10/05 03:28:20;;;;;;;4.65;2.92;;;;;;;21.32;42.34;101815.55;1682266;84;21056;-79
2022/10/05 03:30:58;;;;;;;5.40;3.30;;;;;;;21.32;42.35;101819.16;1682454;85;21131;-79
2022/10/05 03:33:47;;;;;;;5.37;3.35;;;;;;;21.32;42.35;101821.92;1653266;84;21068;-79
2022/10/05 03:36:34;;;;;;;5.72;3.30;;;;;;;21.31;42.37;101821.65;1690552;84;21099;-79
2022/10/05 03:39:22;;;;;;;5.72;3.52;;;;;;;21.31;42.35;101823.03;1689524;84;21578;-80
2022/10/05 03:42:19;;;;;;;5.22;3.37;;;;;;;21.31;42.37;101827.19;1687156;84;21052;-79
2022/10/05 03:45:00;;;;;;;5.10;3.55;;;;;;;21.31;42.35;101829.95;1689962;84;20980;-80
2022/10/05 03:47:50;;;;;;;5.15;2.98;;;;;;;21.30;42.36;101827.50;1690172;84;21100;-78
2022/10/05 03:50:28;;;;;;;6.30;3.30;;;;;;;21.30;42.38;101835.22;1648492;84;22386;-78
2022/10/05 03:53:24;;;;;;;5.50;3.17;;;;;;;21.29;42.38;101831.38;1670634;84;21962;-79
2022/10/05 03:56:14;;;;;;;4.95;2.98;;;;;;;21.30;42.41;101837.19;1686680;84;21734;-79
2022/10/05 03:58:58;;;;;;;5.17;3.40;;;;;;;21.30;42.42;101842.73;1687112;85;21087;-79
2022/10/05 04:01:51;;;;;;;5.12;3.22;;;;;;;21.29;42.41;101842.45;1685951;84;21559;-79
2022/10/05 04:04:29;;;;;;;6.45;3.65;;;;;;;21.28;42.40;101847.16;1687309;85;21101;-79
2022/10/05 04:06:55;;;;;;;4.47;2.67;;;;;;;21.28;42.40;101855.47;1687419;84;21223;-79
2022/10/05 04:09:33;;;;;;;5.58;3.20;;;;;;;21.28;42.41;101858.23;1623333;87;21078;-78
2022/10/05 04:12:07;;;;;;;5.70;3.27;;;;;;;21.27;42.42;101857.97;1639891;87;21537;-79
2022/10/05 04:14:45;;;;;;;6.33;3.65;;;;;;;21.27;42.41;101855.20;1654075;84;21041;-79
2022/10/05 04:17:17;;;;;;;5.37;3.20;;;;;;;21.28;42.40;101862.95;1680352;84;22136;-78
2022/10/05 04:19:57;;;;;;;4.78;3.25;;;;;;;21.29;42.42;101862.66;1746231;81;21509;-79
2022/10/05 04:22:38;;;;;;;5.05;3.52;;;;;;;21.28;42.43;101867.09;1746374;82;21044;-79
2022/10/05 04:25:16;;;;;;;7.53;3.85;;;;;;;21.28;42.28;101869.31;1746635;82;21486;-79
2022/10/05 04:27:59;;;;;;;5.97;3.67;;;;;;;21.28;42.44;101879.55;1745508;82;21036;-79
2022/10/05 04:30:25;;;;;;;4.40;3.15;;;;;;;21.28;42.42;101880.94;1694415;84;21098;-79
2022/10/05 04:32:56;;;;;;;6.08;2.80;;;;;;;21.27;42.42;101881.49;1694192;84;21185;-78
2022/10/05 04:36:06;;;;;;;5.70;3.00;;;;;;;21.27;42.43;101885.64;1694123;84;21371;-79
2022/10/05 04:39:19;;;;;;;5.80;3.70;;;;;;;21.28;42.43;101893.39;1722919;83;21096;-79
2022/10/05 04:41:59;;;;;;;5.45;3.20;;;;;;;21.27;42.43;101895.33;1723329;83;21562;-78
2022/10/05 04:45:00;;;;;;;6.12;3.05;;;;;;;21.26;42.42;101904.75;1723242;83;21077;-79
2022/10/05 04:47:38;;;;;;;6.40;3.20;;;;;;;21.27;42.40;101917.48;1723080;83;21809;-79
2022/10/05 04:50:35;;;;;;;4.53;3.17;;;;;;;21.26;42.43;101921.36;1721606;83;21942;-79
2022/10/05 04:53:32;;;;;;;5.92;3.37;;;;;;;21.26;42.42;101927.48;1722124;83;21111;-79
2022/10/05 04:56:18;;;;;;;5.90;3.08;;;;;;;21.25;42.41;101929.97;1722341;83;21666;-79
2022/10/05 04:59:08;;;;;;;6.35;3.37;;;;;;;21.25;42.43;101927.20;1722569;83;21152;-79
2022/10/05 05:02:09;;;;;;;6.78;3.45;;;;;;;21.25;42.42;101929.97;1701074;83;21174;-79
2022/10/05 05:05:25;;;;;;;6.65;3.50;;;;;;;21.24;42.45;101930.53;1673083;85;21106;-79
2022/10/05 05:08:12;;;;;;;8.38;3.60;;;;;;;21.24;42.46;101928.31;1664660;85;21063;-78
2022/10/05 05:10:50;;;;;;;7.03;3.25;;;;;;;21.24;42.48;101932.47;1664803;84;21039;-79
2022/10/05 05:13:40;;;;;;;6.42;3.37;;;;;;;21.23;42.48;101930.25;1671124;83;21084;-79
2022/10/05 05:16:39;;;;;;;5.35;3.37;;;;;;;21.23;42.45;101933.02;1714733;83;21594;-79
2022/10/05 05:19:31;;;;;;;5.65;2.87;;;;;;;21.23;42.45;101939.95;1714676;83;21037;-80
2022/10/05 05:22:34;;;;;;;6.20;3.22;;;;;;;21.23;42.48;101936.34;1714542;83;21634;-79
2022/10/05 05:25:42;;;;;;;7.83;3.80;;;;;;;21.23;42.50;101937.73;1715114;83;21105;-79
2022/10/05 05:28:48;;;;;;;7.30;3.30;;;;;;;21.22;42.46;101936.08;1713395;82;21079;-80
2022/10/05 05:31:38;;;;;;;5.95;3.45;;;;;;;21.23;42.50;101936.34;1714707;83;21323;-79
2022/10/05 05:34:33;;;;;;;7.20;3.58;;;;;;;21.23;42.46;101946.03;1707158;83;21075;-80
2022/10/05 05:37:21;;;;;;;5.12;2.85;;;;;;;21.23;42.45;101950.19;1714611;83;21103;-80
2022/10/05 05:40:08;;;;;;;4.17;2.87;;;;;;;21.20;42.47;101942.48;1715448;83;21116;-79
2022/10/05 05:42:52;;;;;;;8.55;4.08;;;;;;;21.22;42.49;101941.61;1714053;83;21040;-80
2022/10/05 05:45:43;;;;;;;5.92;3.42;;;;;;;21.23;42.49;101948.25;1715011;83;21585;-79
2022/10/05 05:48:21;;;;;;;7.92;3.33;;;;;;;21.24;42.46;101947.69;1714490;83;21088;-79
2022/10/05 05:51:04;;;;;;;5.37;3.30;;;;;;;21.24;42.48;101957.38;1688323;83;21074;-80
2022/10/05 05:53:40;;;;;;;5.00;3.12;;;;;;;21.24;42.49;101956.83;1636177;85;21043;-80
2022/10/05 05:56:18;;;;;;;5.85;3.25;;;;;;;21.25;42.45;101965.40;1664591;84;21135;-80
2022/10/05 05:58:55;;;;;;;6.97;3.50;;;;;;;21.25;42.45;101972.87;1664789;84;21219;-80
2022/10/05 06:01:32;;;;;;;6.50;3.37;;;;;;;21.26;42.47;101978.09;1677469;83;21057;-80
2022/10/05 06:04:18;;;;;;;6.72;3.30;;;;;;;21.25;42.45;101982.01;1628224;86;21072;-79
2022/10/05 06:06:48;;;;;;;5.62;3.30;;;;;;;21.26;42.42;101988.38;1655267;86;21526;-80
2022/10/05 06:09:29;;;;;;;5.83;3.62;;;;;;;21.26;42.43;101996.09;1628098;86;21627;-79
2022/10/05 06:11:59;;;;;;;6.30;3.60;;;;;;;21.27;42.41;101994.98;1654815;86;21475;-79
2022/10/05 06:14:37;;;;;;;6.47;3.80;;;;;;;21.26;42.40;101993.32;1627890;86;20992;-79
2022/10/05 06:17:08;;;;;;;4.37;3.20;;;;;;;21.26;42.37;101990.55;1672074;84;21077;-79
2022/10/05 06:19:34;;;;;;;4.35;3.02;;;;;;;21.27;42.38;101997.75;1697853;84;21148;-80
2022/10/05 06:22:23;;;;;;;6.05;3.62;;;;;;;21.27;42.40;101997.75;1630105;85;21116;-80
2022/10/05 06:25:04;;;;;;;5.75;3.08;;;;;;;21.28;42.39;102005.49;1690756;84;21080;-80
2022/10/05 06:27:39;;;;;;;;;;;;;;;21.28;42.42;102009.64;1708434;82;21116;-80
2022/10/05 06:30:13;;;;;;;6.35;3.87;;;;;;;21.28;42.36;102011.03;1691927;84;20210;-80
2022/10/05 06:33:08;;;;;;;7.10;3.95;;;;;;;21.28;42.41;102011.03;1692398;84;21095;-80
2022/10/05 06:35:49;;;;;;;6.72;3.37;;;;;;;21.27;42.41;102009.37;1692209;84;21673;-80
2022/10/05 06:38:39;;;;;;;5.78;3.40;;;;;;;21.28;42.39;102017.95;1692628;84;22004;-80
2022/10/05 06:41:46;;;;;;;6.07;3.40;;;;;;;21.27;42.37;102019.06;1692030;84;21115;-79
2022/10/05 06:44:39;;;;;;;5.95;3.42;;;;;;;21.27;42.36;102016.30;1692145;84;21086;-80
2022/10/05 06:47:20;;;;;;;5.78;3.25;;;;;;;21.27;42.35;102023.21;1679453;84;21064;-80
2022/10/05 06:50:04;;;;;;;5.78;3.60;;;;;;;21.27;42.37;102013.52;1691799;84;21040;-80
2022/10/05 06:52:48;;;;;;;5.95;3.50;;;;;;;21.26;42.37;102009.92;1728535;82;21566;-80
2022/10/05 06:55:43;;;;;;;7.05;3.62;;;;;;;21.26;42.40;102015.46;1735614;82;21135;-80
2022/10/05 06:58:33;;;;;;;5.97;3.52;;;;;;;21.28;42.35;102012.41;1735236;82;21037;-79
2022/10/05 07:01:04;;;;;;;7.12;3.40;;;;;;;21.28;42.35;102019.33;1735447;82;21044;-80
2022/10/05 07:04:06;;;;;;;6.22;3.42;;;;;;;21.28;42.32;102020.16;1712649;82;21056;-80
2022/10/05 07:06:50;;;;;;;5.20;3.12;;;;;;;21.29;42.30;102022.38;1659373;84;21244;-79
2022/10/05 07:09:51;;;;;;;5.08;3.35;;;;;;;21.29;42.36;102020.99;1707101;83;21097;-80
2022/10/05 07:12:43;;;;;;;6.15;3.20;;;;;;;21.29;42.38;102025.14;1711595;83;21096;-79
2022/10/05 07:15:35;;;;;;;7.65;3.25;;;;;;;21.30;42.35;102025.42;1711183;83;21733;-79
2022/10/05 07:18:28;;;;;;;5.58;3.40;;;;;;;21.29;42.34;102024.59;1679052;83;21064;-80
2022/10/05 07:21:24;;;;;;;5.97;3.37;;;;;;;21.29;42.38;102031.51;1712637;83;21181;-80
2022/10/05 07:24:05;;;;;;;6.75;3.50;;;;;;;21.30;42.35;102038.67;1688656;83;21108;-80
2022/10/05 07:26:40;;;;;;;7.35;3.52;;;;;;;21.30;42.38;102032.34;1688991;83;21554;-80
2022/10/05 07:29:18;;;;;;;6.62;3.58;;;;;;;21.30;42.37;102028.98;1712400;83;21596;-80
2022/10/05 07:32:01;;;;;;;5.72;3.70;;;;;;;21.32;42.34;102032.85;1712074;83;21579;-80
2022/10/05 07:34:48;;;;;;;4.58;3.00;;;;;;;21.32;42.38;102031.47;1710752;83;21068;-80
2022/10/05 07:40:15;;;;;;;6.67;3.50;;;;;;;21.33;42.37;102031.74;1712521;83;21028;-79
2022/10/05 07:42:59;;;;;;;3.70;2.72;;;;;;;21.33;42.34;102031.74;1712308;83;21568;-80
2022/10/05 07:45:33;;;;;;;5.15;3.27;;;;;;;21.33;42.37;102038.11;1712842;83;21093;-80
2022/10/05 07:48:21;;;;;;;6.03;3.50;;;;;;;21.34;42.38;102038.94;1712538;83;21574;-80
2022/10/05 07:50:58;;;;;;;6.28;3.15;;;;;;;21.33;42.32;102042.26;1712677;83;21478;-79
2022/10/05 07:53:35;;;;;;;6.28;3.27;;;;;;;21.34;42.32;102039.73;1712297;83;21707;-80
2022/10/05 07:56:12;;;;;;;3.95;2.83;;;;;;;21.34;42.36;102043.89;1712409;83;21084;-80
2022/10/05 07:58:47;;;;;;;4.90;2.90;;;;;;;21.35;42.36;102055.23;1712212;83;21107;-79
2022/10/05 08:01:28;;;;;;;6.60;3.17;;;;;;;21.35;42.36;102061.33;1712573;83;21662;-80
2022/10/05 08:04:12;;;;;;;5.17;3.05;;;;;;;21.36;42.35;102061.59;1718685;83;21048;-80
2022/10/05 08:06:58;;;;;;;6.67;3.42;;;;;;;21.35;42.36;102062.16;1668726;83;21060;-80
2022/10/05 08:10:01;;;;;;;4.17;3.10;;;;;;;21.36;42.35;102065.75;1711590;83;21055;-80
2022/10/05 08:12:50;;;;;;;6.30;2.92;;;;;;;21.36;42.34;102069.35;1712853;83;21052;-80
2022/10/05 08:15:26;;;;;;;5.45;3.10;;;;;;;21.36;42.28;102072.67;1712615;83;21177;-80
2022/10/05 08:18:12;;;;;;;4.95;3.20;;;;;;;21.37;42.28;102068.80;1712700;83;21515;-80
2022/10/05 08:20:54;;;;;;;5.45;2.98;;;;;;;21.36;42.28;102067.97;1712706;83;21044;-79
2022/10/05 08:23:43;;;;;;;5.10;2.90;;;;;;;21.37;42.23;102070.17;1712853;83;21742;-80
2022/10/05 08:26:29;;;;;;;4.30;2.90;;;;;;;21.37;42.27;102079.87;1712532;83;21083;-80
2022/10/05 08:29:31;;;;;;;5.33;2.70;;;;;;;21.37;42.23;102075.72;1712200;83;21681;-80
2022/10/05 08:32:02;;;;;;;5.70;3.10;;;;;;;21.37;42.22;102082.08;1712439;83;21116;-80
2022/10/05 08:34:36;;;;;;;4.87;3.00;;;;;;;21.36;42.22;102080.42;1712812;83;21060;-80
2022/10/05 08:37:22;;;;;;;6.55;3.33;;;;;;;21.37;42.21;102075.16;1712221;83;21104;-80
2022/10/05 08:40:13;;;;;;;5.30;2.92;;;;;;;21.38;42.17;102079.59;1712130;83;21729;-80
2022/10/05 08:43:23;;;;;;;4.05;2.55;;;;;;;21.38;42.16;102076.82;1653022;86;21885;-80
2022/10/05 08:46:20;;;;;;;7.53;2.83;;;;;;;21.39;42.16;102080.38;1733530;82;21556;-80
2022/10/05 08:49:04;;;;;;;3.87;2.83;;;;;;;21.38;42.17;102090.66;1733554;82;21115;-80
2022/10/05 08:51:47;;;;;;;4.22;2.75;;;;;;;21.37;42.16;102080.70;1673536;82;21036;-79
2022/10/05 08:54:34;;;;;;;3.87;2.52;;;;;;;21.38;42.15;102084.30;1741326;82;21682;-79
2022/10/05 08:58:01;;;;;;;4.67;2.67;;;;;;;21.38;42.17;102081.52;1736173;82;21216;-80
2022/10/05 09:01:02;;;;;;;6.08;2.75;;;;;;;21.37;42.15;102086.23;1736012;82;38941;-79
2022/10/05 09:03:35;;;;;;;;;;;;;;;21.37;42.11;102084.85;1738075;82;21128;-79
2022/10/05 09:06:24;;;;;;;6.08;2.40;;;;;;;21.37;42.08;102092.33;1735792;82;20418;-79
2022/10/05 09:09:20;;;;;;;4.83;2.90;;;;;;;21.36;42.14;102093.44;1735905;82;21033;-79
2022/10/05 09:12:32;;;;;;;4.17;2.47;;;;;;;21.36;42.14;102093.44;1735842;82;23054;-79
2022/10/05 09:15:34;;;;;;;3.50;2.42;;;;;;;21.36;42.15;102090.67;1715964;82;21032;-80
2022/10/05 09:18:24;;;;;;;4.17;2.60;;;;;;;21.36;42.16;102089.28;1723729;82;21083;-79
2022/10/05 09:20:56;;;;;;;5.78;2.42;;;;;;;21.35;42.16;102096.77;1650915;86;21052;-80
2022/10/05 09:23:43;;;;;;;5.47;3.00;;;;;;;21.36;42.16;102090.67;1715215;82;21590;-80
2022/10/05 09:26:43;;;;;;;4.45;2.58;;;;;;;21.36;42.17;102090.11;1650817;86;21088;-80
2022/10/05 09:29:50;;;;;;;5.55;2.83;;;;;;;21.36;42.19;102094.82;1719828;82;21539;-80
2022/10/05 09:32:48;;;;;;;5.50;3.12;;;;;;;21.37;42.18;102092.33;1659700;85;21062;-79
2022/10/05 09:36:03;;;;;;;3.87;2.50;;;;;;;21.37;42.21;102088.17;1728712;81;21083;-80
2022/10/05 09:38:58;;;;;;;4.55;2.58;;;;;;;21.37;42.23;102086.79;1732979;81;21111;-80
2022/10/05 09:41:41;;;;;;;4.55;2.65;;;;;;;21.36;42.20;102090.11;1727646;81;21048;-80
2022/10/05 09:44:36;;;;;;;4.87;2.50;;;;;;;21.37;42.18;102093.71;1710273;82;21117;-79
2022/10/05 09:47:51;;;;;;;4.03;2.67;;;;;;;21.37;42.20;102094.54;1678955;83;21121;-80
2022/10/05 09:50:55;;;;;;;4.00;2.25;;;;;;;21.37;42.17;102093.16;1714984;83;21114;-79
2022/10/05 09:53:47;;;;;;;4.33;2.60;;;;;;;21.37;42.16;102082.08;1714868;82;21605;-79
2022/10/05 09:56:19;;;;;;;4.70;2.40;;;;;;;21.38;42.18;102093.98;1715406;83;21178;-80
2022/10/05 09:59:15;;;;;;;6.87;2.52;;;;;;;21.36;42.15;102091.50;1715181;82;21108;-80
2022/10/05 10:02:05;;;;;;;5.80;2.33;;;;;;;21.37;42.13;102090.39;1715142;83;21581;-80
2022/10/05 10:05:04;;;;;;;5.10;2.50;;;;;;;21.36;42.16;102080.98;1682156;84;21583;-80
2022/10/05 10:07:56;;;;;;;4.65;2.40;;;;;;;21.37;42.14;102079.31;1616200;88;21066;-79
2022/10/05 10:11:02;;;;;;;3.75;2.47;;;;;;;21.36;42.15;102077.66;1622172;87;21133;-79
2022/10/05 10:13:52;;;;;;;4.03;2.30;;;;;;;21.38;42.15;102078.76;1599632;87;21713;-80
2022/10/05 10:16:48;;;;;;;4.35;2.58;;;;;;;21.37;42.18;102071.01;1577716;88;21133;-80
2022/10/05 10:19:42;;;;;;;3.20;2.40;;;;;;;21.37;42.18;102068.80;1622258;88;21153;-80
2022/10/05 10:22:33;;;;;;;4.47;2.15;;;;;;;21.38;42.20;102071.28;1621873;88;21492;-80
2022/10/05 10:25:26;;;;;;;;;;;;;;;21.38;42.21;102063.53;1624454;88;21156;-80
2022/10/05 10:28:18;;;;;;;5.10;2.40;;;;;;;21.36;42.21;102058.28;1638443;86;20145;-80
2022/10/05 10:31:02;;;;;;;4.12;2.60;;;;;;;21.36;42.22;102048.59;1653819;86;21077;-80
2022/10/05 10:34:02;;;;;;;2.92;2.15;;;;;;;21.36;42.22;102044.44;1637209;86;20992;-80
2022/10/05 10:37:28;;;;;;;5.72;2.55;;;;;;;21.35;42.22;102042.77;1653984;86;21103;-80
2022/10/05 10:40:25;;;;;;;3.10;2.22;;;;;;;21.37;42.21;102039.73;1655294;86;21211;-80
2022/10/05 10:43:20;;;;;;;2.80;2.00;;;;;;;21.38;42.21;102040.00;1665976;86;21039;-80
2022/10/05 10:46:07;;;;;;;4.58;2.20;;;;;;;21.37;42.22;102037.79;1648143;86;21123;-80
2022/10/05 10:48:57;;;;;;;4.35;2.35;;;;;;;21.36;42.22;102027.82;1665485;86;21100;-80
2022/10/05 10:51:46;;;;;;;5.42;2.42;;;;;;;21.37;42.23;102023.95;1665560;86;21056;-80
2022/10/05 10:54:35;;;;;;;3.80;2.65;;;;;;;21.37;42.24;102020.34;1665790;86;22228;-79
2022/10/05 10:57:14;;;;;;;3.45;2.15;;;;;;;21.38;42.25;102019.23;1665534;86;21575;-79
2022/10/05 11:00:16;;;;;;;3.67;2.00;;;;;;;21.39;42.24;102013.94;1618922;86;21571;-80
2022/10/05 11:03:04;;;;;;;3.52;2.08;;;;;;;21.38;42.25;102013.70;1662340;85;21576;-80
2022/10/05 11:05:58;;;;;;;2.98;1.95;;;;;;;21.38;42.29;102020.63;1673598;85;21599;-80
2022/10/05 11:09:02;;;;;;;3.52;2.17;;;;;;;21.37;42.28;102015.64;1673343;85;21218;-80
2022/10/05 11:12:01;;;;;;;3.90;2.83;;;;;;;21.37;42.29;102008.72;1673916;85;21040;-79
2022/10/05 11:15:04;;;;;;;4.08;2.27;;;;;;;21.36;42.29;102011.21;1650496;85;21095;-80
2022/10/05 11:18:00;;;;;;;4.37;2.45;;;;;;;21.37;42.29;102012.87;1634764;87;21111;-80
2022/10/05 11:21:11;;;;;;;4.65;2.10;;;;;;;21.38;42.30;102016.47;1634825;87;21131;-80
2022/10/05 11:23:47;;;;;;;;;;;;;;;21.38;42.30;102016.47;1637375;87;21899;-79
2022/10/05 11:26:51;;;;;;;5.00;2.45;;;;;;;21.36;42.29;102023.67;1633711;87;20209;-79
2022/10/05 11:29:32;;;;;;;4.80;2.20;;;;;;;21.36;42.31;102029.77;1634476;87;21087;-80
2022/10/05 11:32:28;;;;;;;3.62;2.35;;;;;;;21.36;42.33;102031.15;1634160;87;21076;-79
2022/10/05 11:35:36;;;;;;;3.72;2.37;;;;;;;21.36;42.34;102029.20;1634189;87;21052;-80
2022/10/05 11:38:35;;;;;;;5.08;2.25;;;;;;;21.37;42.35;102031.42;1618272;86;21985;-80
2022/10/05 11:41:26;;;;;;;4.17;2.08;;;;;;;21.37;42.34;102032.80;1648485;86;21646;-79
2022/10/05 11:44:33;;;;;;;2.70;1.90;;;;;;;21.36;42.34;102025.05;1648662;87;22307;-79
2022/10/05 11:47:28;;;;;;;3.50;2.00;;;;;;;21.37;42.35;102021.73;1649551;87;21061;-79
2022/10/05 11:50:34;;;;;;;3.87;2.10;;;;;;;21.37;42.35;102012.05;1605396;86;21140;-80
2022/10/05 11:53:24;;;;;;;2.55;1.82;;;;;;;21.37;42.36;102012.87;1653560;85;21558;-79
2022/10/05 11:56:21;;;;;;;3.10;2.02;;;;;;;21.37;42.36;102006.50;1661311;86;21581;-80
2022/10/05 11:58:59;;;;;;;3.90;2.20;;;;;;;21.37;42.35;102002.35;1661064;86;21322;-79
2022/10/05 12:02:00;;;;;;;4.12;1.87;;;;;;;21.38;42.33;101995.70;1661412;86;21091;-79
2022/10/05 12:04:31;;;;;;;3.25;1.90;;;;;;;21.38;42.34;101984.62;1660653;85;21134;-80
2022/10/05 12:07:29;;;;;;;3.62;2.12;;;;;;;21.38;42.33;101983.25;1655662;86;22001;-80
2022/10/05 12:10:21;;;;;;;5.80;2.75;;;;;;;21.38;42.33;101971.61;1651409;86;21113;-79
2022/10/05 12:13:07;;;;;;;2.72;1.90;;;;;;;21.38;42.31;101959.16;1650939;86;21068;-80
2022/10/05 12:16:13;;;;;;;2.87;1.90;;;;;;;21.38;42.34;101956.39;1622002;86;21061;-79
2022/10/05 12:19:07;;;;;;;3.47;2.20;;;;;;;21.39;42.34;101957.19;1623136;88;21559;-80
2022/10/05 12:21:48;;;;;;;2.50;1.87;;;;;;;21.40;42.30;101961.05;1623628;88;21260;-80
2022/10/05 12:24:38;;;;;;;3.33;2.00;;;;;;;21.40;42.31;101971.30;1623667;88;21568;-79
2022/10/05 12:27:09;;;;;;;3.17;2.07;;;;;;;21.40;42.31;101985.14;1623967;88;21500;-80
2022/10/05 12:29:59;;;;;;;2.92;2.00;;;;;;;21.41;42.32;101978.50;1621761;88;21121;-80
2022/10/05 12:32:58;;;;;;;2.53;1.60;;;;;;;21.42;42.34;101970.46;1599935;88;21106;-80
2022/10/05 12:35:39;;;;;;;3.42;1.87;;;;;;;21.40;42.34;101978.22;1639470;87;21556;-79
2022/10/05 12:38:28;;;;;;;4.75;2.10;;;;;;;21.40;42.31;101974.07;1649101;85;21021;-80
2022/10/05 12:41:16;;;;;;;2.85;1.75;;;;;;;21.40;42.31;101972.69;1674848;85;21474;-80
2022/10/05 12:43:56;;;;;;;2.83;2.02;;;;;;;21.41;42.30;101977.11;1675225;85;21084;-80
2022/10/05 12:46:34;;;;;;;4.20;2.17;;;;;;;21.41;42.32;101984.03;1675081;85;21037;-80
2022/10/05 12:49:39;;;;;;;2.65;1.62;;;;;;;21.39;42.34;101982.93;1650437;85;21347;-79
2022/10/05 12:52:26;;;;;;;2.95;1.80;;;;;;;21.40;42.33;101975.45;1675134;85;21147;-81
2022/10/05 12:55:20;;;;;;;2.52;1.70;;;;;;;21.40;42.32;101974.89;1654837;85;21080;-79
2022/10/05 12:58:04;;;;;;;3.62;2.02;;;;;;;21.39;42.30;101974.62;1654656;86;21100;-80
2022/10/05 13:00:38;;;;;;;2.60;1.87;;;;;;;21.39;42.33;101975.19;1655017;86;21108;-79